createdAt,value
2023-05-09T00:00:13.764Z,502.00
2023-05-09T00:01:13.817Z,511.00
2023-05-09T00:02:13.901Z,512.00
2023-05-09T00:03:13.953Z,510.00
2023-05-09T00:04:14.004Z,507.00
2023-05-09T00:05:14.200Z,513.00
2023-05-09T00:06:14.198Z,511.00
2023-05-09T00:07:14.120Z,509.00
2023-05-09T00:08:14.169Z,508.00
2023-05-09T00:09:14.216Z,510.00
2023-05-09T00:10:14.287Z,512.00
2023-05-09T00:11:14.332Z,514.00
2023-05-09T00:12:14.371Z,512.00
2023-05-09T00:13:14.449Z,513.00
2023-05-09T00:14:14.442Z,513.00
2023-05-09T00:15:14.674Z,512.00
2023-05-09T00:16:14.498Z,515.00
2023-05-09T00:17:14.540Z,517.00
2023-05-09T00:18:14.490Z,514.00
2023-05-09T00:19:14.534Z,509.00
2023-05-09T00:20:14.535Z,514.00
2023-05-09T00:21:14.564Z,515.00
2023-05-09T00:22:14.663Z,515.00
2023-05-09T00:23:14.568Z,515.00
2023-05-09T00:24:14.587Z,516.00
2023-05-09T00:25:14.839Z,514.00
2023-05-09T00:26:14.603Z,516.00
2023-05-09T00:27:14.639Z,518.00
2023-05-09T00:28:14.651Z,514.00
2023-05-09T00:29:14.683Z,511.00
2023-05-09T00:30:14.676Z,500.00
2023-05-09T00:31:14.701Z,501.00
2023-05-09T00:32:14.812Z,506.00
2023-05-09T00:33:14.752Z,509.00
2023-05-09T00:34:14.751Z,509.00
2023-05-09T00:35:15.028Z,504.00
2023-05-09T00:36:14.791Z,502.00
2023-05-09T00:37:14.818Z,506.00
2023-05-09T00:38:14.944Z,507.00
2023-05-09T00:39:14.901Z,511.00
2023-05-09T00:40:14.957Z,507.00
2023-05-09T00:41:15.000Z,513.00
2023-05-09T00:42:15.071Z,509.00
2023-05-09T00:43:15.099Z,510.00
2023-05-09T00:44:15.144Z,511.00
2023-05-09T00:45:15.318Z,508.00
2023-05-09T00:46:15.273Z,506.00
2023-05-09T00:47:15.326Z,508.00
2023-05-09T00:48:15.353Z,508.00
2023-05-09T00:49:15.412Z,509.00
2023-05-09T00:50:15.394Z,509.00
2023-05-09T00:51:15.403Z,509.00
2023-05-09T00:52:15.423Z,509.00
2023-05-09T00:53:15.450Z,515.00
2023-05-09T00:54:15.556Z,511.00
2023-05-09T00:55:15.634Z,508.00
2023-05-09T00:56:15.472Z,509.00
2023-05-09T00:57:15.501Z,509.00
2023-05-09T00:58:15.541Z,510.00
2023-05-09T00:59:17.485Z,513.00
2023-05-09T01:00:15.548Z,508.00
2023-05-09T01:01:15.681Z,515.00
2023-05-09T01:02:15.637Z,510.00
2023-05-09T01:03:15.691Z,505.00
2023-05-09T01:04:15.612Z,507.00
2023-05-09T01:05:15.941Z,506.00
2023-05-09T01:06:15.620Z,508.00
2023-05-09T01:07:15.651Z,504.00
2023-05-09T01:08:15.663Z,505.00
2023-05-09T01:09:15.725Z,506.00
2023-05-09T01:10:15.873Z,508.00
2023-05-09T01:11:15.843Z,509.00
2023-05-09T01:12:15.904Z,509.00
2023-05-09T01:13:15.955Z,509.00
2023-05-09T01:14:15.865Z,508.00
2023-05-09T01:15:16.036Z,505.00
2023-05-09T01:16:15.916Z,499.00
2023-05-09T01:17:15.884Z,505.00
2023-05-09T01:18:15.907Z,505.00
2023-05-09T01:19:15.922Z,505.00
2023-05-09T01:20:15.937Z,505.00
2023-05-09T01:21:15.929Z,492.00
2023-05-09T01:22:15.975Z,498.00
2023-05-09T01:23:15.968Z,498.00
2023-05-09T01:24:15.982Z,502.00
2023-05-09T01:25:16.182Z,503.00
2023-05-09T01:26:16.112Z,503.00
2023-05-09T01:27:16.034Z,504.00
2023-05-09T01:28:16.030Z,503.00
2023-05-09T01:29:16.043Z,504.00
2023-05-09T01:30:16.045Z,500.00
2023-05-09T01:31:16.089Z,500.00
2023-05-09T01:32:16.133Z,502.00
2023-05-09T01:33:16.176Z,507.00
2023-05-09T01:34:16.249Z,504.00
2023-05-09T01:35:16.508Z,504.00
2023-05-09T01:36:16.372Z,504.00
2023-05-09T01:37:16.435Z,501.00
2023-05-09T01:38:16.482Z,502.00
2023-05-09T01:39:16.533Z,505.00
2023-05-09T01:40:16.596Z,504.00
2023-05-09T01:41:16.701Z,506.00
2023-05-09T01:42:16.803Z,505.00
2023-05-09T01:43:16.776Z,505.00
2023-05-09T01:44:16.952Z,506.00
2023-05-09T01:45:17.279Z,500.00
2023-05-09T01:46:16.942Z,506.00
2023-05-09T01:47:16.994Z,508.00
2023-05-09T01:48:17.038Z,509.00
2023-05-09T01:49:17.100Z,514.00
2023-05-09T01:50:17.169Z,509.00
2023-05-09T01:51:17.213Z,508.00
2023-05-09T01:52:17.271Z,508.00
2023-05-09T01:53:17.317Z,507.00
2023-05-09T01:54:17.379Z,513.00
2023-05-09T01:55:17.452Z,509.00
2023-05-09T01:56:17.488Z,505.00
2023-05-09T01:57:17.565Z,510.00
2023-05-09T01:58:17.685Z,510.00
2023-05-09T01:59:17.650Z,506.00
2023-05-09T02:00:17.705Z,505.00
2023-05-09T02:01:17.851Z,505.00
2023-05-09T02:02:17.877Z,503.00
2023-05-09T02:03:17.978Z,500.00
2023-05-09T02:04:17.973Z,502.00
2023-05-09T02:05:18.099Z,508.00
2023-05-09T02:06:18.067Z,506.00
2023-05-09T02:07:18.188Z,506.00
2023-05-09T02:08:18.213Z,501.00
2023-05-09T02:09:18.291Z,510.00
2023-05-09T02:10:18.377Z,506.00
2023-05-09T02:11:18.461Z,508.00
2023-05-09T02:12:18.495Z,502.00
2023-05-09T02:13:18.629Z,508.00
2023-05-09T02:14:18.727Z,513.00
2023-05-09T02:15:18.695Z,507.00
2023-05-09T02:16:20.605Z,503.00
2023-05-09T02:17:18.814Z,508.00
2023-05-09T02:18:18.883Z,510.00
2023-05-09T02:19:18.961Z,514.00
2023-05-09T02:20:18.982Z,511.00
2023-05-09T02:21:18.991Z,511.00
2023-05-09T02:22:19.038Z,511.00
2023-05-09T02:23:19.021Z,513.00
2023-05-09T02:24:19.022Z,511.00
2023-05-09T02:25:19.030Z,516.00
2023-05-09T02:26:19.039Z,512.00
2023-05-09T02:27:19.073Z,513.00
2023-05-09T02:28:19.069Z,509.00
2023-05-09T02:29:19.070Z,513.00
2023-05-09T02:30:19.323Z,510.00
2023-05-09T02:31:19.103Z,508.00
2023-05-09T02:32:19.101Z,511.00
2023-05-09T02:33:19.155Z,514.00
2023-05-09T02:34:19.215Z,515.00
2023-05-09T02:35:19.288Z,514.00
2023-05-09T02:36:19.372Z,511.00
2023-05-09T02:37:19.416Z,514.00
2023-05-09T02:38:19.476Z,515.00
2023-05-09T02:39:19.541Z,520.00
2023-05-09T02:40:19.598Z,519.00
2023-05-09T02:41:19.668Z,522.00
2023-05-09T02:42:19.721Z,523.00
2023-05-09T02:43:19.784Z,528.00
2023-05-09T02:44:19.850Z,526.00
2023-05-09T02:45:19.915Z,523.00
2023-05-09T02:46:20.132Z,524.00
2023-05-09T02:47:20.047Z,524.00
2023-05-09T02:48:20.112Z,519.00
2023-05-09T02:49:31.498Z,523.00
2023-05-09T02:50:20.180Z,523.00
2023-05-09T02:51:20.202Z,524.00
2023-05-09T02:52:20.218Z,524.00
2023-05-09T02:53:20.234Z,529.00
2023-05-09T02:54:20.295Z,524.00
2023-05-09T02:55:20.283Z,528.00
2023-05-09T02:56:20.288Z,530.00
2023-05-09T02:57:20.346Z,532.00
2023-05-09T02:58:20.328Z,532.00
2023-05-09T02:59:20.353Z,527.00
2023-05-09T03:00:20.409Z,533.00
2023-05-09T03:01:20.394Z,532.00
2023-05-09T03:02:20.628Z,535.00
2023-05-09T03:03:20.621Z,534.00
2023-05-09T03:04:20.574Z,535.00
2023-05-09T03:05:20.644Z,536.00
2023-05-09T03:06:20.714Z,534.00
2023-05-09T03:07:20.797Z,536.00
2023-05-09T03:08:20.856Z,538.00
2023-05-09T03:09:20.915Z,535.00
2023-05-09T03:10:21.012Z,536.00
2023-05-09T03:11:21.036Z,532.00
2023-05-09T03:12:21.101Z,536.00
2023-05-09T03:13:21.308Z,540.00
2023-05-09T03:14:21.169Z,540.00
2023-05-09T03:15:21.185Z,540.00
2023-05-09T03:16:21.253Z,541.00
2023-05-09T03:17:21.328Z,539.00
2023-05-09T03:18:21.322Z,536.00
2023-05-09T03:19:21.245Z,534.00
2023-05-09T03:20:21.252Z,535.00
2023-05-09T03:21:21.277Z,538.00
2023-05-09T03:22:21.327Z,537.00
2023-05-09T03:23:21.310Z,536.00
2023-05-09T03:24:21.322Z,535.00
2023-05-09T03:25:21.375Z,539.00
2023-05-09T03:26:21.398Z,541.00
2023-05-09T03:27:21.466Z,536.00
2023-05-09T03:28:21.525Z,537.00
2023-05-09T03:29:21.613Z,540.00
2023-05-09T03:30:21.648Z,540.00
2023-05-09T03:31:21.750Z,540.00
2023-05-09T03:32:21.780Z,538.00
2023-05-09T03:33:21.835Z,543.00
2023-05-09T03:34:21.983Z,539.00
2023-05-09T03:35:21.956Z,540.00
2023-05-09T03:36:22.032Z,536.00
2023-05-09T03:37:22.084Z,540.00
2023-05-09T03:38:22.164Z,537.00
2023-05-09T03:39:22.223Z,536.00
2023-05-09T03:40:22.287Z,539.00
2023-05-09T03:41:22.349Z,540.00
2023-05-09T03:42:22.414Z,541.00
2023-05-09T03:43:22.491Z,541.00
2023-05-09T03:44:22.575Z,542.00
2023-05-09T03:45:22.668Z,539.00
2023-05-09T03:46:22.716Z,543.00
2023-05-09T03:47:22.772Z,541.00
2023-05-09T03:48:22.836Z,538.00
2023-05-09T03:49:22.900Z,544.00
2023-05-09T03:50:23.053Z,548.00
2023-05-09T03:51:23.040Z,544.00
2023-05-09T03:52:23.111Z,544.00
2023-05-09T03:53:23.145Z,544.00
2023-05-09T03:54:23.214Z,547.00
2023-05-09T03:55:23.300Z,545.00
2023-05-09T03:56:23.353Z,544.00
2023-05-09T03:57:23.424Z,544.00
2023-05-09T03:58:23.487Z,545.00
2023-05-09T03:59:23.551Z,545.00
2023-05-09T04:00:23.621Z,548.00
2023-05-09T04:01:23.691Z,544.00
2023-05-09T04:02:23.884Z,546.00
2023-05-09T04:03:23.942Z,546.00
2023-05-09T04:04:23.914Z,549.00
2023-05-09T04:05:23.990Z,548.00
2023-05-09T04:06:24.125Z,551.00
2023-05-09T04:07:24.109Z,543.00
2023-05-09T04:08:24.164Z,549.00
2023-05-09T04:09:24.260Z,546.00
2023-05-09T04:10:24.301Z,545.00
2023-05-09T04:11:24.367Z,549.00
2023-05-09T04:12:24.435Z,548.00
2023-05-09T04:13:24.607Z,546.00
2023-05-09T04:14:24.563Z,543.00
2023-05-09T04:15:24.633Z,545.00
2023-05-09T04:16:24.791Z,548.00
2023-05-09T04:17:24.809Z,547.00
2023-05-09T04:18:24.831Z,548.00
2023-05-09T04:19:24.892Z,550.00
2023-05-09T04:20:24.963Z,550.00
2023-05-09T04:21:25.040Z,543.00
2023-05-09T04:22:25.200Z,548.00
2023-05-09T04:23:25.173Z,546.00
2023-05-09T04:24:25.233Z,548.00
2023-05-09T04:25:25.305Z,549.00
2023-05-09T04:26:25.385Z,547.00
2023-05-09T04:27:25.443Z,547.00
2023-05-09T04:28:25.530Z,547.00
2023-05-09T04:29:26.430Z,545.00
2023-05-09T04:30:25.633Z,548.00
2023-05-09T04:31:25.795Z,541.00
2023-05-09T04:32:25.898Z,545.00
2023-05-09T04:33:25.869Z,549.00
2023-05-09T04:34:26.926Z,547.00
2023-05-09T04:35:25.929Z,548.00
2023-05-09T04:36:25.948Z,549.00
2023-05-09T04:37:26.010Z,550.00
2023-05-09T04:38:26.096Z,552.00
2023-05-09T04:39:26.006Z,555.00
2023-05-09T04:40:26.887Z,548.00
2023-05-09T04:41:26.129Z,550.00
2023-05-09T04:42:26.142Z,553.00
2023-05-09T04:43:26.132Z,548.00
2023-05-09T04:44:26.214Z,551.00
2023-05-09T04:45:26.284Z,553.00
2023-05-09T04:46:26.334Z,559.00
2023-05-09T04:47:26.240Z,561.00
2023-05-09T04:48:26.227Z,559.00
2023-05-09T04:49:26.247Z,555.00
2023-05-09T04:50:26.221Z,560.00
2023-05-09T04:51:26.221Z,562.00
2023-05-09T04:52:26.312Z,554.00
2023-05-09T04:53:26.373Z,561.00
2023-05-09T04:54:26.572Z,560.00
2023-05-09T04:55:26.531Z,558.00
2023-05-09T04:56:26.635Z,561.00
2023-05-09T04:57:26.720Z,554.00
2023-05-09T04:58:26.792Z,553.00
2023-05-09T04:59:26.869Z,560.00
2023-05-09T05:00:26.947Z,561.00
2023-05-09T05:01:27.073Z,562.00
2023-05-09T05:02:27.119Z,560.00
2023-05-09T05:03:27.185Z,559.00
2023-05-09T05:04:27.320Z,558.00
2023-05-09T05:05:27.727Z,558.00
2023-05-09T05:06:27.931Z,559.00
2023-05-09T05:07:27.499Z,556.00
2023-05-09T05:08:27.541Z,558.00
2023-05-09T05:09:27.632Z,558.00
2023-05-09T05:10:27.680Z,551.00
2023-05-09T05:11:27.752Z,543.00
2023-05-09T05:12:27.822Z,551.00
2023-05-09T05:13:27.987Z,552.00
2023-05-09T05:14:27.981Z,555.00
2023-05-09T05:15:28.029Z,557.00
2023-05-09T05:16:28.114Z,557.00
2023-05-09T05:17:28.123Z,557.00
2023-05-09T05:18:28.132Z,557.00
2023-05-09T05:19:28.159Z,555.00
2023-05-09T05:20:28.161Z,555.00
2023-05-09T05:21:28.176Z,555.00
2023-05-09T05:22:28.403Z,552.00
2023-05-09T05:23:28.250Z,553.00
2023-05-09T05:24:28.232Z,552.00
2023-05-09T05:25:28.235Z,555.00
2023-05-09T05:26:28.339Z,552.00
2023-05-09T05:27:28.275Z,553.00
2023-05-09T05:28:28.278Z,551.00
2023-05-09T05:29:28.311Z,550.00
2023-05-09T05:30:28.415Z,546.00
2023-05-09T05:31:28.516Z,547.00
2023-05-09T05:32:28.572Z,545.00
2023-05-09T05:33:28.569Z,544.00
2023-05-09T05:34:28.636Z,562.00
2023-05-09T05:35:28.711Z,592.00
2023-05-09T05:36:28.790Z,613.00
2023-05-09T05:37:28.872Z,656.00
2023-05-09T05:38:28.933Z,727.00
2023-05-09T05:39:28.995Z,770.00
2023-05-09T05:40:29.050Z,791.00
2023-05-09T05:41:29.076Z,805.00
2023-05-09T05:42:29.216Z,810.00
2023-05-09T05:43:29.174Z,802.00
2023-05-09T05:44:29.219Z,809.00
2023-05-09T05:45:29.252Z,791.00
2023-05-09T05:46:29.956Z,808.00
2023-05-09T05:47:29.340Z,790.00
2023-05-09T05:48:29.377Z,793.00
2023-05-09T05:49:30.079Z,787.00
2023-05-09T05:50:29.477Z,795.00
2023-05-09T05:51:29.482Z,817.00
2023-05-09T05:52:29.524Z,806.00
2023-05-09T05:53:30.808Z,805.00
2023-05-09T05:54:29.674Z,772.00
2023-05-09T05:55:29.682Z,725.00
2023-05-09T05:56:29.691Z,649.00
2023-05-09T05:57:29.719Z,650.00
2023-05-09T05:58:29.810Z,630.00
2023-05-09T05:59:29.731Z,629.00
2023-05-09T06:00:29.769Z,655.00
2023-05-09T06:01:29.759Z,651.00
2023-05-09T06:02:29.828Z,661.00
2023-05-09T06:03:29.842Z,689.00
2023-05-09T06:04:29.775Z,724.00
2023-05-09T06:05:29.783Z,808.00
2023-05-09T06:06:29.830Z,841.00
2023-05-09T06:07:29.826Z,878.00
2023-05-09T06:08:29.821Z,882.00
2023-05-09T06:09:29.833Z,892.00
2023-05-09T06:10:29.849Z,895.00
2023-05-09T06:11:29.877Z,941.00
2023-05-09T06:12:29.891Z,1037.00
2023-05-09T06:13:29.917Z,1063.00
2023-05-09T06:14:30.025Z,1066.00
2023-05-09T06:15:29.926Z,1068.00
2023-05-09T06:16:30.019Z,1086.00
2023-05-09T06:17:29.970Z,1085.00
2023-05-09T06:18:29.949Z,1074.00
2023-05-09T06:19:29.951Z,1103.00
2023-05-09T06:20:29.956Z,1102.00
2023-05-09T06:21:29.970Z,1146.00
2023-05-09T06:22:30.030Z,1140.00
2023-05-09T06:23:29.997Z,1176.00
2023-05-09T06:24:35.759Z,1176.00
2023-05-09T06:25:30.968Z,1177.00
2023-05-09T06:26:30.032Z,1182.00
2023-05-09T06:27:29.997Z,1132.00
2023-05-09T06:28:30.030Z,1196.00
2023-05-09T06:29:30.029Z,1213.00
2023-05-09T06:30:30.133Z,1209.00
2023-05-09T06:31:30.094Z,1173.00
2023-05-09T06:32:30.115Z,1144.00
2023-05-09T06:33:30.083Z,1132.00
2023-05-09T06:34:30.088Z,1126.00
2023-05-09T06:35:30.059Z,1138.00
2023-05-09T06:36:30.110Z,1168.00
2023-05-09T06:37:30.981Z,1161.00
2023-05-09T06:38:30.126Z,1139.00
2023-05-09T06:39:30.122Z,1118.00
2023-05-09T06:40:31.084Z,1100.00
2023-05-09T06:41:30.166Z,1129.00
2023-05-09T06:42:30.195Z,1139.00
2023-05-09T06:43:30.187Z,1142.00
2023-05-09T06:44:30.203Z,1202.00
2023-05-09T06:45:30.316Z,1254.00
2023-05-09T06:46:30.451Z,1215.00
2023-05-09T06:47:30.461Z,1223.00
2023-05-09T06:48:30.493Z,1238.00
2023-05-09T06:49:30.524Z,1185.00
2023-05-09T06:50:32.789Z,1209.00
2023-05-09T06:51:30.702Z,1210.00
2023-05-09T06:52:30.800Z,1238.00
2023-05-09T06:53:30.857Z,1263.00
2023-05-09T06:54:31.061Z,1268.00
2023-05-09T06:55:30.958Z,1280.00
2023-05-09T06:56:31.029Z,1109.00
2023-05-09T06:57:31.142Z,925.00
2023-05-09T06:58:31.213Z,956.00
2023-05-09T06:59:31.282Z,1016.00
2023-05-09T07:00:31.309Z,1054.00
2023-05-09T07:01:31.548Z,1057.00
2023-05-09T07:02:31.672Z,1060.00
2023-05-09T07:03:31.548Z,1045.00
2023-05-09T07:04:31.596Z,1025.00
2023-05-09T07:05:31.665Z,1007.00
2023-05-09T07:06:31.729Z,1038.00
2023-05-09T07:07:31.832Z,1067.00
2023-05-09T07:08:31.824Z,1068.00
2023-05-09T07:09:31.805Z,1071.00
2023-05-09T07:10:31.820Z,1081.00
2023-05-09T07:11:31.839Z,1102.00
2023-05-09T07:12:31.814Z,1147.00
2023-05-09T07:13:31.985Z,1153.00
2023-05-09T07:14:31.841Z,1151.00
2023-05-09T07:15:41.476Z,1198.00
2023-05-09T07:16:34.075Z,1200.00
2023-05-09T07:17:31.821Z,1206.00
2023-05-09T07:18:31.899Z,1210.00
2023-05-09T07:19:32.497Z,1221.00
2023-05-09T07:20:31.821Z,1266.00
2023-05-09T07:21:31.819Z,1263.00
2023-05-09T07:22:33.059Z,1284.00
2023-05-09T07:23:31.883Z,1288.00
2023-05-09T07:24:31.826Z,1303.00
2023-05-09T07:25:31.818Z,1331.00
2023-05-09T07:26:31.882Z,1311.00
2023-05-09T07:27:31.921Z,1297.00
2023-05-09T07:28:31.978Z,1307.00
2023-05-09T07:29:32.005Z,1283.00
2023-05-09T07:30:32.072Z,1268.00
2023-05-09T07:31:32.234Z,1292.00
2023-05-09T07:32:32.203Z,1287.00
2023-05-09T07:33:32.220Z,1275.00
2023-05-09T07:34:32.327Z,1283.00
2023-05-09T07:35:32.475Z,1295.00
2023-05-09T07:36:34.788Z,1309.00
2023-05-09T07:37:32.325Z,1317.00
2023-05-09T07:38:32.285Z,1313.00
2023-05-09T07:39:32.289Z,1307.00
2023-05-09T07:40:32.324Z,1300.00
2023-05-09T07:41:32.318Z,1313.00
2023-05-09T07:42:32.305Z,1302.00
2023-05-09T07:43:32.490Z,1301.00
2023-05-09T07:44:32.416Z,1307.00
2023-05-09T07:45:32.338Z,1292.00
2023-05-09T07:46:32.364Z,1287.00
2023-05-09T07:47:33.113Z,1300.00
2023-05-09T07:48:32.313Z,1307.00
2023-05-09T07:49:32.433Z,1315.00
2023-05-09T07:50:32.462Z,1297.00
2023-05-09T07:51:32.624Z,1292.00
2023-05-09T07:52:32.321Z,1288.00
2023-05-09T07:53:32.293Z,1257.00
2023-05-09T07:54:32.300Z,1239.00
2023-05-09T07:55:32.680Z,1212.00
2023-05-09T07:56:32.411Z,1220.00
2023-05-09T07:57:32.476Z,1216.00
2023-05-09T07:58:32.358Z,1217.00
2023-05-09T07:59:32.332Z,1220.00
2023-05-09T08:00:32.328Z,1203.00
2023-05-09T08:01:32.344Z,1153.00
2023-05-09T08:02:32.552Z,1140.00
2023-05-09T08:03:32.590Z,1124.00
2023-05-09T08:04:32.441Z,1073.00
2023-05-09T08:05:32.540Z,1077.00
2023-05-09T08:06:32.398Z,1077.00
2023-05-09T08:07:32.467Z,1078.00
2023-05-09T08:08:32.519Z,1096.00
2023-05-09T08:09:32.348Z,1092.00
2023-05-09T08:10:32.387Z,1070.00
2023-05-09T08:11:32.363Z,1016.00
2023-05-09T08:12:32.380Z,1004.00
2023-05-09T08:13:32.466Z,1028.00
2023-05-09T08:14:32.543Z,1037.00
2023-05-09T08:15:32.378Z,1045.00
2023-05-09T08:16:32.609Z,1042.00
2023-05-09T08:17:32.499Z,1042.00
2023-05-09T08:18:32.383Z,1042.00
2023-05-09T08:19:32.421Z,1024.00
2023-05-09T08:20:32.395Z,1044.00
2023-05-09T08:21:32.365Z,1024.00
2023-05-09T08:22:32.596Z,1052.00
2023-05-09T08:23:32.372Z,1053.00
2023-05-09T08:24:32.376Z,1037.00
2023-05-09T08:25:32.400Z,1025.00
2023-05-09T08:26:32.362Z,994.00
2023-05-09T08:27:32.363Z,1019.00
2023-05-09T08:28:32.418Z,1017.00
2023-05-09T08:29:32.353Z,1007.00
2023-05-09T08:30:32.350Z,987.00
2023-05-09T08:31:32.382Z,997.00
2023-05-09T08:32:32.359Z,467.00
2023-05-09T08:33:32.341Z,400.00
2023-05-09T08:34:32.347Z,400.00
2023-05-09T08:35:32.436Z,400.00
2023-05-09T08:36:32.314Z,400.00
2023-05-09T08:37:32.308Z,400.00
2023-05-09T08:38:32.445Z,400.00
2023-05-09T08:39:32.538Z,400.00
2023-05-09T08:40:32.350Z,400.00
2023-05-09T08:41:32.383Z,400.00
2023-05-09T08:42:32.401Z,400.00
2023-05-09T08:43:32.408Z,400.00
2023-05-09T08:44:32.403Z,400.00
2023-05-09T08:45:32.411Z,400.00
2023-05-09T08:46:32.491Z,400.00
2023-05-09T08:47:32.456Z,455.00
2023-05-09T08:48:35.247Z,521.00
2023-05-09T08:49:32.456Z,603.00
2023-05-09T08:50:32.470Z,605.00
2023-05-09T08:51:32.512Z,504.00
2023-05-09T08:52:32.476Z,400.00
2023-05-09T08:53:32.492Z,504.00
2023-05-09T08:54:32.603Z,508.00
2023-05-09T08:55:32.499Z,570.00
2023-05-09T08:56:32.501Z,400.00
2023-05-09T08:57:32.514Z,447.00
2023-05-09T08:58:32.536Z,400.00
2023-05-09T08:59:32.551Z,400.00
2023-05-09T09:00:32.621Z,400.00
2023-05-09T09:01:32.722Z,525.00
2023-05-09T09:02:32.792Z,675.00
2023-05-09T09:03:32.848Z,951.00
2023-05-09T09:04:32.948Z,1127.00
2023-05-09T09:05:41.218Z,1304.00
2023-05-09T09:06:33.984Z,1309.00
2023-05-09T09:07:33.059Z,1330.00
2023-05-09T09:08:32.974Z,1396.00
2023-05-09T09:09:33.103Z,1523.00
2023-05-09T09:10:33.098Z,1699.00
2023-05-09T09:11:33.167Z,1791.00
2023-05-09T09:12:33.012Z,1883.00
2023-05-09T09:13:33.124Z,1982.00
2023-05-09T09:14:33.021Z,2059.00
2023-05-09T09:15:33.099Z,2160.00
2023-05-09T09:16:33.079Z,2226.00
2023-05-09T09:17:33.078Z,2270.00
2023-05-09T09:18:33.060Z,2330.00
2023-05-09T09:19:33.069Z,2363.00
2023-05-09T09:20:33.062Z,2365.00
2023-05-09T09:21:33.093Z,2373.00
2023-05-09T09:22:33.106Z,2399.00
2023-05-09T09:23:33.108Z,2439.00
2023-05-09T09:24:33.072Z,2511.00
2023-05-09T09:25:33.110Z,2370.00
2023-05-09T09:26:33.164Z,2395.00
2023-05-09T09:27:33.074Z,2437.00
2023-05-09T09:28:33.091Z,2502.00
2023-05-09T09:29:33.076Z,2618.00
2023-05-09T09:30:33.044Z,2647.00
2023-05-09T09:31:33.224Z,2649.00
2023-05-09T09:32:33.100Z,2655.00
2023-05-09T09:33:33.026Z,1658.00
2023-05-09T09:34:33.157Z,1144.00
2023-05-09T09:35:33.025Z,619.00
2023-05-09T09:36:33.030Z,507.00
2023-05-09T09:37:33.034Z,495.00
2023-05-09T09:38:33.040Z,480.00
2023-05-09T09:39:33.055Z,416.00
2023-05-09T09:40:33.061Z,435.00
2023-05-09T09:41:33.066Z,1405.00
2023-05-09T09:42:33.165Z,1608.00
2023-05-09T09:43:33.267Z,1843.00
2023-05-09T09:44:33.097Z,2030.00
2023-05-09T09:45:33.160Z,2202.00
2023-05-09T09:46:33.251Z,2233.00
2023-05-09T09:47:33.326Z,2197.00
2023-05-09T09:48:33.358Z,2150.00
2023-05-09T09:49:33.392Z,1817.00
2023-05-09T09:50:33.428Z,1828.00
2023-05-09T09:51:33.495Z,2025.00
2023-05-09T09:52:33.498Z,2163.00
2023-05-09T09:53:33.575Z,2235.00
2023-05-09T09:54:33.589Z,2257.00
2023-05-09T09:55:33.602Z,2284.00
2023-05-09T09:56:33.632Z,2310.00
2023-05-09T09:57:33.672Z,2366.00
2023-05-09T09:58:33.678Z,2412.00
2023-05-09T09:59:33.707Z,2451.00
2023-05-09T10:00:33.704Z,2498.00
2023-05-09T10:01:33.844Z,2537.00
2023-05-09T10:02:33.794Z,2553.00
2023-05-09T10:03:33.782Z,2614.00
2023-05-09T10:04:33.802Z,2684.00
2023-05-09T10:05:33.770Z,2757.00
2023-05-09T10:06:33.793Z,2788.00
2023-05-09T10:07:33.830Z,2780.00
2023-05-09T10:08:33.827Z,2815.00
2023-05-09T10:09:33.820Z,2787.00
2023-05-09T10:10:33.847Z,2788.00
2023-05-09T10:11:33.807Z,2794.00
2023-05-09T10:12:33.796Z,2790.00
2023-05-09T10:13:33.820Z,2798.00
2023-05-09T10:14:35.320Z,2808.00
2023-05-09T10:15:49.440Z,2824.00
2023-05-09T10:16:43.528Z,2789.00
2023-05-09T10:17:34.967Z,2790.00
2023-05-09T10:18:34.074Z,2801.00
2023-05-09T10:19:33.809Z,2805.00
2023-05-09T10:20:33.844Z,2826.00
2023-05-09T10:21:33.806Z,2845.00
2023-05-09T10:22:33.812Z,2883.00
2023-05-09T10:23:33.826Z,2440.00
2023-05-09T10:24:33.812Z,1616.00
2023-05-09T10:25:33.843Z,1243.00
2023-05-09T10:26:33.822Z,986.00
2023-05-09T10:27:33.875Z,1102.00
2023-05-09T10:28:33.846Z,1090.00
2023-05-09T10:29:33.954Z,1193.00
2023-05-09T10:30:34.301Z,1755.00
2023-05-09T10:31:33.943Z,2049.00
2023-05-09T10:32:33.941Z,2234.00
2023-05-09T10:33:33.876Z,2336.00
2023-05-09T10:34:33.892Z,2364.00
2023-05-09T10:35:33.967Z,2324.00
2023-05-09T10:36:33.901Z,2365.00
2023-05-09T10:37:33.938Z,2454.00
2023-05-09T10:38:34.555Z,2551.00
2023-05-09T10:39:33.906Z,2592.00
2023-05-09T10:40:33.904Z,2773.00
2023-05-09T10:41:33.924Z,2867.00
2023-05-09T10:42:33.956Z,2932.00
2023-05-09T10:43:35.449Z,2979.00
2023-05-09T10:44:33.999Z,3033.00
2023-05-09T10:45:33.950Z,3048.00
2023-05-09T10:46:34.125Z,3090.00
2023-05-09T10:47:34.051Z,3071.00
2023-05-09T10:48:33.987Z,3064.00
2023-05-09T10:49:36.820Z,3107.00
2023-05-09T10:50:33.957Z,3109.00
2023-05-09T10:51:33.979Z,3115.00
2023-05-09T10:52:33.960Z,3121.00
2023-05-09T10:53:33.961Z,3113.00
2023-05-09T10:54:33.958Z,3135.00
2023-05-09T10:55:33.963Z,3133.00
2023-05-09T10:56:33.956Z,3141.00
2023-05-09T10:57:33.960Z,3113.00
2023-05-09T10:58:34.072Z,3122.00
2023-05-09T10:59:34.001Z,3098.00
2023-05-09T11:00:33.988Z,3129.00
2023-05-09T11:01:34.004Z,3149.00
2023-05-09T11:02:34.135Z,3113.00
2023-05-09T11:03:34.041Z,3098.00
2023-05-09T11:04:33.996Z,3088.00
2023-05-09T11:05:33.987Z,3084.00
2023-05-09T11:06:33.994Z,3065.00
2023-05-09T11:07:33.995Z,3069.00
2023-05-09T11:08:33.991Z,3058.00
2023-05-09T11:09:34.030Z,3064.00
2023-05-09T11:10:34.025Z,3060.00
2023-05-09T11:11:34.025Z,3047.00
2023-05-09T11:12:34.036Z,3017.00
2023-05-09T11:13:34.076Z,3018.00
2023-05-09T11:14:34.041Z,3017.00
2023-05-09T11:15:34.036Z,3003.00
2023-05-09T11:16:34.039Z,2976.00
2023-05-09T11:17:34.050Z,2947.00
2023-05-09T11:18:34.148Z,2934.00
2023-05-09T11:19:34.071Z,2913.00
2023-05-09T11:20:34.060Z,2889.00
2023-05-09T11:21:34.045Z,2895.00
2023-05-09T11:22:34.050Z,2868.00
2023-05-09T11:23:34.057Z,2869.00
2023-05-09T11:24:34.044Z,2869.00
2023-05-09T11:25:34.040Z,2850.00
2023-05-09T11:26:34.105Z,2865.00
2023-05-09T11:27:34.040Z,2845.00
2023-05-09T11:28:34.071Z,2869.00
2023-05-09T11:29:34.050Z,2859.00
2023-05-09T11:30:34.152Z,2863.00
2023-05-09T11:31:34.090Z,2859.00
2023-05-09T11:32:34.117Z,2831.00
2023-05-09T11:33:34.071Z,2843.00
2023-05-09T11:34:34.177Z,2829.00
2023-05-09T11:35:34.069Z,2836.00
2023-05-09T11:36:34.145Z,2836.00
2023-05-09T11:37:34.071Z,2817.00
2023-05-09T11:38:34.055Z,2802.00
2023-05-09T11:39:34.052Z,2796.00
2023-05-09T11:40:34.055Z,2810.00
2023-05-09T11:41:34.069Z,2800.00
2023-05-09T11:42:34.074Z,2785.00
2023-05-09T11:43:34.115Z,2775.00
2023-05-09T11:44:34.045Z,2785.00
2023-05-09T11:45:34.061Z,2750.00
2023-05-09T11:46:34.206Z,2745.00
2023-05-09T11:47:34.065Z,2737.00
2023-05-09T11:48:34.051Z,2744.00
2023-05-09T11:49:34.048Z,2702.00
2023-05-09T11:50:34.135Z,2702.00
2023-05-09T11:51:34.047Z,2699.00
2023-05-09T11:52:34.055Z,2707.00
2023-05-09T11:53:34.057Z,2683.00
2023-05-09T11:54:34.058Z,2665.00
2023-05-09T11:55:34.061Z,2685.00
2023-05-09T11:56:34.066Z,2673.00
2023-05-09T11:57:34.096Z,2652.00
2023-05-09T11:58:34.127Z,2647.00
2023-05-09T11:59:34.093Z,2644.00
2023-05-09T12:00:34.097Z,2647.00
2023-05-09T12:01:34.099Z,2610.00
2023-05-09T12:02:34.218Z,2594.00
2023-05-09T12:03:34.149Z,2614.00
2023-05-09T12:04:34.181Z,2610.00
2023-05-09T12:05:34.145Z,2595.00
2023-05-09T12:06:34.158Z,2578.00
2023-05-09T12:07:34.146Z,2564.00
2023-05-09T12:08:34.144Z,2566.00
2023-05-09T12:09:34.194Z,2577.00
2023-05-09T12:10:34.180Z,2579.00
2023-05-09T12:11:34.180Z,2565.00
2023-05-09T12:12:34.184Z,2556.00
2023-05-09T12:13:34.196Z,2533.00
2023-05-09T12:14:34.226Z,2516.00
2023-05-09T12:15:34.224Z,2531.00
2023-05-09T12:16:34.333Z,2503.00
2023-05-09T12:17:34.307Z,2519.00
2023-05-09T12:18:34.255Z,2510.00